sensor_id;sensor_type;location;lat;lon;timestamp;temperature;humidity
2721;DHT22;1368;49.484;11.112;2022-10-31T00:01:34;13.40;99.90
2721;DHT22;1368;49.484;11.112;2022-10-31T00:04:00;13.30;99.90
2721;DHT22;1368;49.484;11.112;2022-10-31T00:06:26;13.50;99.90
2721;DHT22;1368;49.484;11.112;2022-10-31T00:08:57;13.50;99.90
2721;DHT22;1368;49.484;11.112;2022-10-31T00:11:23;13.90;99.90
2721;DHT22;1368;49.484;11.112;2022-10-31T00:13:49;13.50;99.90
2721;DHT22;1368;49.484;11.112;2022-10-31T00:16:24;14.00;99.90
2721;DHT22;1368;49.484;11.112;2022-10-31T00:18:55;13.30;99.90
2721;DHT22;1368;49.484;11.112;2022-10-31T00:21:22;13.30;99.90
2721;DHT22;1368;49.484;11.112;2022-10-31T00:23:48;13.10;99.90
2721;DHT22;1368;49.484;11.112;2022-10-31T00:26:14;13.20;99.90
2721;DHT22;1368;49.484;11.112;2022-10-31T00:28:39;12.80;99.90
2721;DHT22;1368;49.484;11.112;2022-10-31T00:31:07;13.50;99.90
2721;DHT22;1368;49.484;11.112;2022-10-31T00:33:37;13.00;99.90
2721;DHT22;1368;49.484;11.112;2022-10-31T00:36:05;13.10;99.90
2721;DHT22;1368;49.484;11.112;2022-10-31T00:38:31;13.20;99.90
2721;DHT22;1368;49.484;11.112;2022-10-31T00:40:56;13.10;99.90
2721;DHT22;1368;49.484;11.112;2022-10-31T00:43:22;13.20;99.90
2721;DHT22;1368;49.484;11.112;2022-10-31T00:45:47;13.20;99.90
2721;DHT22;1368;49.484;11.112;2022-10-31T00:48:13;13.20;99.90
2721;DHT22;1368;49.484;11.112;2022-10-31T00:50:39;13.10;99.90
2721;DHT22;1368;49.484;11.112;2022-10-31T00:53:05;13.10;99.90
2721;DHT22;1368;49.484;11.112;2022-10-31T00:55:31;13.30;99.90
2721;DHT22;1368;49.484;11.112;2022-10-31T00:57:56;13.10;99.90
2721;DHT22;1368;49.484;11.112;2022-10-31T01:00:22;13.00;99.90
2721;DHT22;1368;49.484;11.112;2022-10-31T01:02:48;12.60;99.90
2721;DHT22;1368;49.484;11.112;2022-10-31T01:05:13;12.40;99.90
2721;DHT22;1368;49.484;11.112;2022-10-31T01:07:40;12.30;99.90
2721;DHT22;1368;49.484;11.112;2022-10-31T01:10:07;12.60;99.90
2721;DHT22;1368;49.484;11.112;2022-10-31T01:12:44;12.70;99.90
2721;DHT22;1368;49.484;11.112;2022-10-31T01:15:12;12.80;99.90
2721;DHT22;1368;49.484;11.112;2022-10-31T01:17:38;12.80;99.90
2721;DHT22;1368;49.484;11.112;2022-10-31T01:20:05;12.60;99.90
2721;DHT22;1368;49.484;11.112;2022-10-31T01:22:31;12.30;99.90
2721;DHT22;1368;49.484;11.112;2022-10-31T01:24:56;12.30;99.90
2721;DHT22;1368;49.484;11.112;2022-10-31T01:27:22;12.00;99.90
2721;DHT22;1368;49.484;11.112;2022-10-31T01:29:47;12.00;99.90
2721;DHT22;1368;49.484;11.112;2022-10-31T01:32:13;11.70;99.90
2721;DHT22;1368;49.484;11.112;2022-10-31T01:34:38;11.60;99.90
2721;DHT22;1368;49.484;11.112;2022-10-31T01:37:04;11.80;99.90
2721;DHT22;1368;49.484;11.112;2022-10-31T01:39:29;12.00;99.90
2721;DHT22;1368;49.484;11.112;2022-10-31T01:41:55;12.10;99.90
2721;DHT22;1368;49.484;11.112;2022-10-31T01:49:31;12.30;99.90
2721;DHT22;1368;49.484;11.112;2022-10-31T01:54:35;12.50;99.90
2721;DHT22;1368;49.484;11.112;2022-10-31T01:57:04;12.50;99.90
2721;DHT22;1368;49.484;11.112;2022-10-31T01:59:32;12.50;99.90
2721;DHT22;1368;49.484;11.112;2022-10-31T02:01:59;12.50;99.90
2721;DHT22;1368;49.484;11.112;2022-10-31T02:04:26;12.50;99.90
2721;DHT22;1368;49.484;11.112;2022-10-31T02:06:59;12.50;99.90
2721;DHT22;1368;49.484;11.112;2022-10-31T02:09:29;12.50;99.90
2721;DHT22;1368;49.484;11.112;2022-10-31T02:11:57;12.50;99.90
2721;DHT22;1368;49.484;11.112;2022-10-31T02:14:26;12.40;99.90
2721;DHT22;1368;49.484;11.112;2022-10-31T02:16:56;12.40;99.90
2721;DHT22;1368;49.484;11.112;2022-10-31T02:22:46;12.30;99.90
2721;DHT22;1368;49.484;11.112;2022-10-31T02:36:32;12.00;99.90
2721;DHT22;1368;49.484;11.112;2022-10-31T02:41:35;12.10;99.90
2721;DHT22;1368;49.484;11.112;2022-10-31T02:46:44;12.10;99.90
2721;DHT22;1368;49.484;11.112;2022-10-31T02:49:29;12.10;99.90
2721;DHT22;1368;49.484;11.112;2022-10-31T02:51:57;12.00;99.90
2721;DHT22;1368;49.484;11.112;2022-10-31T02:54:25;11.80;99.90
2721;DHT22;1368;49.484;11.112;2022-10-31T02:56:58;11.70;99.90
2721;DHT22;1368;49.484;11.112;2022-10-31T02:59:25;11.70;99.90
2721;DHT22;1368;49.484;11.112;2022-10-31T03:02:04;11.50;99.90
2721;DHT22;1368;49.484;11.112;2022-10-31T03:12:40;11.60;99.90
2721;DHT22;1368;49.484;11.112;2022-10-31T03:15:27;11.70;99.90
2721;DHT22;1368;49.484;11.112;2022-10-31T03:20:42;11.00;99.90
2721;DHT22;1368;49.484;11.112;2022-10-31T03:23:13;10.90;99.90
2721;DHT22;1368;49.484;11.112;2022-10-31T03:25:41;10.70;99.90
2721;DHT22;1368;49.484;11.112;2022-10-31T03:28:08;10.70;99.90
2721;DHT22;1368;49.484;11.112;2022-10-31T03:30:37;10.70;99.90
2721;DHT22;1368;49.484;11.112;2022-10-31T03:33:06;10.80;99.90
2721;DHT22;1368;49.484;11.112;2022-10-31T03:35:35;10.90;99.90
2721;DHT22;1368;49.484;11.112;2022-10-31T03:38:02;10.90;99.90
2721;DHT22;1368;49.484;11.112;2022-10-31T03:40:30;10.70;99.90
2721;DHT22;1368;49.484;11.112;2022-10-31T03:43:00;10.70;99.90
2721;DHT22;1368;49.484;11.112;2022-10-31T03:45:30;10.60;99.90
2721;DHT22;1368;49.484;11.112;2022-10-31T03:47:56;10.60;99.90
2721;DHT22;1368;49.484;11.112;2022-10-31T03:50:34;10.90;99.90
2721;DHT22;1368;49.484;11.112;2022-10-31T03:53:09;10.80;99.90
2721;DHT22;1368;49.484;11.112;2022-10-31T03:58:09;10.80;99.90
2721;DHT22;1368;49.484;11.112;2022-10-31T04:00:39;11.00;99.90
2721;DHT22;1368;49.484;11.112;2022-10-31T04:03:17;10.90;99.90
2721;DHT22;1368;49.484;11.112;2022-10-31T04:05:46;11.00;99.90
2721;DHT22;1368;49.484;11.112;2022-10-31T04:08:16;11.00;99.90
2721;DHT22;1368;49.484;11.112;2022-10-31T04:10:44;11.10;99.90
2721;DHT22;1368;49.484;11.112;2022-10-31T04:13:17;11.30;99.90
2721;DHT22;1368;49.484;11.112;2022-10-31T04:15:44;11.20;99.90
2721;DHT22;1368;49.484;11.112;2022-10-31T04:18:11;11.20;99.90
2721;DHT22;1368;49.484;11.112;2022-10-31T04:20:38;11.20;99.90
2721;DHT22;1368;49.484;11.112;2022-10-31T04:23:05;11.20;99.90
2721;DHT22;1368;49.484;11.112;2022-10-31T04:25:36;11.20;99.90
2721;DHT22;1368;49.484;11.112;2022-10-31T04:28:02;11.50;99.90
2721;DHT22;1368;49.484;11.112;2022-10-31T04:30:27;11.00;99.90
2721;DHT22;1368;49.484;11.112;2022-10-31T04:32:53;11.00;99.90
2721;DHT22;1368;49.484;11.112;2022-10-31T04:35:18;11.00;99.90
2721;DHT22;1368;49.484;11.112;2022-10-31T04:37:44;11.00;99.90
2721;DHT22;1368;49.484;11.112;2022-10-31T04:40:10;11.00;99.90
2721;DHT22;1368;49.484;11.112;2022-10-31T04:42:36;11.00;99.90
2721;DHT22;1368;49.484;11.112;2022-10-31T04:45:01;11.00;99.90
2721;DHT22;1368;49.484;11.112;2022-10-31T04:47:27;10.90;99.90
2721;DHT22;1368;49.484;11.112;2022-10-31T04:49:52;10.90;99.90
2721;DHT22;1368;49.484;11.112;2022-10-31T04:52:18;11.10;99.90
2721;DHT22;1368;49.484;11.112;2022-10-31T04:54:43;10.90;99.90
2721;DHT22;1368;49.484;11.112;2022-10-31T04:57:09;10.80;99.90
2721;DHT22;1368;49.484;11.112;2022-10-31T04:59:34;10.70;99.90
2721;DHT22;1368;49.484;11.112;2022-10-31T05:02:00;10.80;99.90
2721;DHT22;1368;49.484;11.112;2022-10-31T05:04:25;11.00;99.90
2721;DHT22;1368;49.484;11.112;2022-10-31T05:06:51;10.70;99.90
2721;DHT22;1368;49.484;11.112;2022-10-31T05:09:16;10.80;99.90
2721;DHT22;1368;49.484;11.112;2022-10-31T05:11:42;10.70;99.90
2721;DHT22;1368;49.484;11.112;2022-10-31T05:14:07;10.50;99.90
2721;DHT22;1368;49.484;11.112;2022-10-31T05:16:33;10.00;99.90
2721;DHT22;1368;49.484;11.112;2022-10-31T05:18:59;9.70;99.90
2721;DHT22;1368;49.484;11.112;2022-10-31T05:21:24;9.70;99.90
2721;DHT22;1368;49.484;11.112;2022-10-31T05:23:50;9.60;99.90
2721;DHT22;1368;49.484;11.112;2022-10-31T05:26:15;9.60;99.90
2721;DHT22;1368;49.484;11.112;2022-10-31T05:28:41;9.70;99.90
2721;DHT22;1368;49.484;11.112;2022-10-31T05:31:06;9.70;99.90
2721;DHT22;1368;49.484;11.112;2022-10-31T05:33:32;9.80;99.90
2721;DHT22;1368;49.484;11.112;2022-10-31T05:35:57;9.80;99.90
2721;DHT22;1368;49.484;11.112;2022-10-31T05:38:23;9.90;99.90
2721;DHT22;1368;49.484;11.112;2022-10-31T05:40:48;10.20;99.90
2721;DHT22;1368;49.484;11.112;2022-10-31T05:43:14;10.30;99.90
2721;DHT22;1368;49.484;11.112;2022-10-31T05:45:40;10.40;99.90
2721;DHT22;1368;49.484;11.112;2022-10-31T05:48:05;10.50;99.90
2721;DHT22;1368;49.484;11.112;2022-10-31T05:50:31;10.70;99.90
2721;DHT22;1368;49.484;11.112;2022-10-31T05:52:59;10.60;99.90
2721;DHT22;1368;49.484;11.112;2022-10-31T05:55:26;10.20;99.90
2721;DHT22;1368;49.484;11.112;2022-10-31T05:57:53;10.10;99.90
2721;DHT22;1368;49.484;11.112;2022-10-31T06:00:19;10.20;99.90
2721;DHT22;1368;49.484;11.112;2022-10-31T06:02:44;10.40;99.90
2721;DHT22;1368;49.484;11.112;2022-10-31T06:05:10;10.50;99.90
2721;DHT22;1368;49.484;11.112;2022-10-31T06:07:36;10.80;99.90
2721;DHT22;1368;49.484;11.112;2022-10-31T06:10:04;10.70;99.90
2721;DHT22;1368;49.484;11.112;2022-10-31T06:12:30;10.80;99.90
2721;DHT22;1368;49.484;11.112;2022-10-31T06:14:56;10.80;99.90
2721;DHT22;1368;49.484;11.112;2022-10-31T06:17:21;10.80;99.90
2721;DHT22;1368;49.484;11.112;2022-10-31T06:19:47;10.60;99.90
2721;DHT22;1368;49.484;11.112;2022-10-31T06:22:12;10.60;99.90
2721;DHT22;1368;49.484;11.112;2022-10-31T06:24:38;10.60;99.90
2721;DHT22;1368;49.484;11.112;2022-10-31T06:27:04;10.60;99.90
2721;DHT22;1368;49.484;11.112;2022-10-31T06:29:30;10.70;99.90
2721;DHT22;1368;49.484;11.112;2022-10-31T06:31:55;10.70;99.90
2721;DHT22;1368;49.484;11.112;2022-10-31T06:34:21;10.70;99.90
2721;DHT22;1368;49.484;11.112;2022-10-31T06:36:47;10.90;99.90
2721;DHT22;1368;49.484;11.112;2022-10-31T06:39:13;10.90;99.90
2721;DHT22;1368;49.484;11.112;2022-10-31T06:41:38;10.90;99.90
2721;DHT22;1368;49.484;11.112;2022-10-31T06:44:06;11.00;99.90
2721;DHT22;1368;49.484;11.112;2022-10-31T06:46:31;10.60;99.90
2721;DHT22;1368;49.484;11.112;2022-10-31T06:48:57;10.80;99.90
2721;DHT22;1368;49.484;11.112;2022-10-31T06:51:23;11.30;99.90
2721;DHT22;1368;49.484;11.112;2022-10-31T06:53:48;11.80;99.90
2721;DHT22;1368;49.484;11.112;2022-10-31T06:56:14;12.30;99.90
2721;DHT22;1368;49.484;11.112;2022-10-31T06:58:40;12.50;99.90
2721;DHT22;1368;49.484;11.112;2022-10-31T07:01:05;12.90;99.90
2721;DHT22;1368;49.484;11.112;2022-10-31T07:03:31;13.20;99.90
2721;DHT22;1368;49.484;11.112;2022-10-31T07:05:57;13.50;99.90
2721;DHT22;1368;49.484;11.112;2022-10-31T07:08:23;13.50;99.90
2721;DHT22;1368;49.484;11.112;2022-10-31T07:10:56;13.70;99.90
2721;DHT22;1368;49.484;11.112;2022-10-31T07:13:23;13.90;99.90
2721;DHT22;1368;49.484;11.112;2022-10-31T07:15:54;14.30;99.90
2721;DHT22;1368;49.484;11.112;2022-10-31T07:18:20;14.70;99.90
2721;DHT22;1368;49.484;11.112;2022-10-31T07:20:46;15.30;99.90
2721;DHT22;1368;49.484;11.112;2022-10-31T07:23:12;15.40;99.90
2721;DHT22;1368;49.484;11.112;2022-10-31T07:25:39;15.90;99.90
2721;DHT22;1368;49.484;11.112;2022-10-31T07:28:04;16.30;99.90
2721;DHT22;1368;49.484;11.112;2022-10-31T07:30:30;16.70;99.90
2721;DHT22;1368;49.484;11.112;2022-10-31T07:32:56;16.80;99.90
2721;DHT22;1368;49.484;11.112;2022-10-31T07:35:24;16.70;99.90
2721;DHT22;1368;49.484;11.112;2022-10-31T07:37:50;16.70;99.90
2721;DHT22;1368;49.484;11.112;2022-10-31T07:40:16;17.10;99.90
2721;DHT22;1368;49.484;11.112;2022-10-31T07:42:44;16.60;99.90
2721;DHT22;1368;49.484;11.112;2022-10-31T07:45:13;16.70;99.90
2721;DHT22;1368;49.484;11.112;2022-10-31T07:50:06;16.70;99.90
2721;DHT22;1368;49.484;11.112;2022-10-31T07:52:32;17.20;99.90
2721;DHT22;1368;49.484;11.112;2022-10-31T07:54:57;17.80;99.90
2721;DHT22;1368;49.484;11.112;2022-10-31T07:57:23;18.20;99.90
2721;DHT22;1368;49.484;11.112;2022-10-31T07:59:48;18.40;99.90
2721;DHT22;1368;49.484;11.112;2022-10-31T08:02:14;18.80;99.90
2721;DHT22;1368;49.484;11.112;2022-10-31T08:04:39;19.10;99.90
2721;DHT22;1368;49.484;11.112;2022-10-31T08:07:05;19.20;99.90
2721;DHT22;1368;49.484;11.112;2022-10-31T08:09:30;19.40;99.90
2721;DHT22;1368;49.484;11.112;2022-10-31T08:11:56;20.00;99.90
2721;DHT22;1368;49.484;11.112;2022-10-31T08:14:21;20.10;99.90
2721;DHT22;1368;49.484;11.112;2022-10-31T08:16:47;20.30;99.90
2721;DHT22;1368;49.484;11.112;2022-10-31T08:19:13;20.30;99.90
2721;DHT22;1368;49.484;11.112;2022-10-31T08:21:39;20.50;99.90
2721;DHT22;1368;49.484;11.112;2022-10-31T08:24:05;20.60;99.90
2721;DHT22;1368;49.484;11.112;2022-10-31T08:26:30;21.20;99.90
2721;DHT22;1368;49.484;11.112;2022-10-31T08:28:56;21.50;99.90
2721;DHT22;1368;49.484;11.112;2022-10-31T08:31:22;21.70;99.90
2721;DHT22;1368;49.484;11.112;2022-10-31T08:33:49;21.70;99.90
2721;DHT22;1368;49.484;11.112;2022-10-31T08:36:14;21.80;99.90
2721;DHT22;1368;49.484;11.112;2022-10-31T08:38:40;21.50;99.90
2721;DHT22;1368;49.484;11.112;2022-10-31T08:41:05;21.70;99.90
2721;DHT22;1368;49.484;11.112;2022-10-31T08:43:31;21.90;99.90
2721;DHT22;1368;49.484;11.112;2022-10-31T08:45:56;21.80;99.90
2721;DHT22;1368;49.484;11.112;2022-10-31T08:48:22;22.10;99.90
2721;DHT22;1368;49.484;11.112;2022-10-31T08:50:48;22.30;99.90
2721;DHT22;1368;49.484;11.112;2022-10-31T08:53:18;21.90;99.90
2721;DHT22;1368;49.484;11.112;2022-10-31T08:55:45;21.80;99.90
2721;DHT22;1368;49.484;11.112;2022-10-31T08:58:13;21.90;99.90
2721;DHT22;1368;49.484;11.112;2022-10-31T09:00:40;21.80;99.90
2721;DHT22;1368;49.484;11.112;2022-10-31T09:03:09;21.70;99.90
2721;DHT22;1368;49.484;11.112;2022-10-31T09:05:35;21.50;99.90
2721;DHT22;1368;49.484;11.112;2022-10-31T09:08:03;21.20;99.90
2721;DHT22;1368;49.484;11.112;2022-10-31T09:10:30;20.90;99.90
2721;DHT22;1368;49.484;11.112;2022-10-31T09:13:01;20.90;99.90
2721;DHT22;1368;49.484;11.112;2022-10-31T09:15:27;20.90;99.90
2721;DHT22;1368;49.484;11.112;2022-10-31T09:17:53;20.90;99.90
2721;DHT22;1368;49.484;11.112;2022-10-31T09:20:19;20.90;99.90
2721;DHT22;1368;49.484;11.112;2022-10-31T09:22:45;21.00;99.90
2721;DHT22;1368;49.484;11.112;2022-10-31T09:25:11;20.90;99.90
2721;DHT22;1368;49.484;11.112;2022-10-31T09:27:37;20.70;99.90
2721;DHT22;1368;49.484;11.112;2022-10-31T09:30:03;20.70;99.90
2721;DHT22;1368;49.484;11.112;2022-10-31T09:32:29;20.70;99.90
2721;DHT22;1368;49.484;11.112;2022-10-31T09:34:55;21.20;99.90
2721;DHT22;1368;49.484;11.112;2022-10-31T09:37:20;20.70;99.90
2721;DHT22;1368;49.484;11.112;2022-10-31T09:39:46;20.60;99.90
2721;DHT22;1368;49.484;11.112;2022-10-31T09:42:49;20.50;99.90
2721;DHT22;1368;49.484;11.112;2022-10-31T09:45:21;20.60;99.90
2721;DHT22;1368;49.484;11.112;2022-10-31T09:48:08;20.40;99.90
2721;DHT22;1368;49.484;11.112;2022-10-31T09:53:51;20.20;99.90
2721;DHT22;1368;49.484;11.112;2022-10-31T09:56:19;20.40;99.90
2721;DHT22;1368;49.484;11.112;2022-10-31T09:58:47;20.50;99.90
2721;DHT22;1368;49.484;11.112;2022-10-31T10:04:27;20.60;99.90
2721;DHT22;1368;49.484;11.112;2022-10-31T10:06:54;20.30;99.90
2721;DHT22;1368;49.484;11.112;2022-10-31T10:09:25;20.20;99.90
2721;DHT22;1368;49.484;11.112;2022-10-31T10:12:15;20.20;99.90
2721;DHT22;1368;49.484;11.112;2022-10-31T10:17:52;20.20;99.90
2721;DHT22;1368;49.484;11.112;2022-10-31T10:23:46;20.70;99.90
2721;DHT22;1368;49.484;11.112;2022-10-31T10:26:18;20.80;99.90
2721;DHT22;1368;49.484;11.112;2022-10-31T10:28:49;21.20;99.90
2721;DHT22;1368;49.484;11.112;2022-10-31T10:31:18;21.30;99.90
2721;DHT22;1368;49.484;11.112;2022-10-31T10:36:21;21.40;99.90
2721;DHT22;1368;49.484;11.112;2022-10-31T10:38:55;21.50;99.90
2721;DHT22;1368;49.484;11.112;2022-10-31T10:41:26;21.60;99.90
2721;DHT22;1368;49.484;11.112;2022-10-31T10:43:53;21.90;99.90
2721;DHT22;1368;49.484;11.112;2022-10-31T10:51:43;21.80;99.90
2721;DHT22;1368;49.484;11.112;2022-10-31T10:57:07;22.00;99.90
2721;DHT22;1368;49.484;11.112;2022-10-31T10:59:37;21.90;99.90
2721;DHT22;1368;49.484;11.112;2022-10-31T11:02:03;22.10;99.90
2721;DHT22;1368;49.484;11.112;2022-10-31T11:04:34;22.50;99.90
2721;DHT22;1368;49.484;11.112;2022-10-31T11:07:06;22.50;99.90
2721;DHT22;1368;49.484;11.112;2022-10-31T11:09:33;22.30;99.90
2721;DHT22;1368;49.484;11.112;2022-10-31T11:11:59;22.40;99.90
2721;DHT22;1368;49.484;11.112;2022-10-31T11:14:26;22.40;99.90
2721;DHT22;1368;49.484;11.112;2022-10-31T11:17:09;22.60;99.90
2721;DHT22;1368;49.484;11.112;2022-10-31T11:19:36;22.40;99.90
2721;DHT22;1368;49.484;11.112;2022-10-31T11:22:07;22.30;99.90
2721;DHT22;1368;49.484;11.112;2022-10-31T11:24:38;22.40;99.90
2721;DHT22;1368;49.484;11.112;2022-10-31T11:27:22;22.50;99.90
2721;DHT22;1368;49.484;11.112;2022-10-31T11:29:49;22.60;99.90
2721;DHT22;1368;49.484;11.112;2022-10-31T11:32:23;22.70;99.90
2721;DHT22;1368;49.484;11.112;2022-10-31T11:34:53;23.00;99.90
2721;DHT22;1368;49.484;11.112;2022-10-31T11:37:29;23.10;99.90
2721;DHT22;1368;49.484;11.112;2022-10-31T11:39:59;23.20;99.90
2721;DHT22;1368;49.484;11.112;2022-10-31T11:42:40;23.30;99.90
2721;DHT22;1368;49.484;11.112;2022-10-31T11:45:18;23.60;99.90
2721;DHT22;1368;49.484;11.112;2022-10-31T11:47:48;23.60;99.90
2721;DHT22;1368;49.484;11.112;2022-10-31T11:50:34;23.70;99.90
2721;DHT22;1368;49.484;11.112;2022-10-31T11:53:02;23.80;99.90
2721;DHT22;1368;49.484;11.112;2022-10-31T11:55:37;23.80;99.90
2721;DHT22;1368;49.484;11.112;2022-10-31T11:58:04;24.00;99.90
2721;DHT22;1368;49.484;11.112;2022-10-31T12:00:33;24.10;99.90
2721;DHT22;1368;49.484;11.112;2022-10-31T12:05:39;24.00;99.90
2721;DHT22;1368;49.484;11.112;2022-10-31T12:08:11;23.90;99.90
2721;DHT22;1368;49.484;11.112;2022-10-31T12:10:50;24.00;99.90
2721;DHT22;1368;49.484;11.112;2022-10-31T12:13:39;23.90;99.90
2721;DHT22;1368;49.484;11.112;2022-10-31T12:16:17;24.10;99.90
2721;DHT22;1368;49.484;11.112;2022-10-31T12:18:50;23.30;99.90
2721;DHT22;1368;49.484;11.112;2022-10-31T12:24:23;23.50;99.90
2721;DHT22;1368;49.484;11.112;2022-10-31T12:27:03;23.70;99.90
2721;DHT22;1368;49.484;11.112;2022-10-31T12:29:56;23.90;99.90
2721;DHT22;1368;49.484;11.112;2022-10-31T12:38:42;24.40;99.90
2721;DHT22;1368;49.484;11.112;2022-10-31T12:53:16;24.50;99.90
2721;DHT22;1368;49.484;11.112;2022-10-31T13:01:32;24.20;99.90
2721;DHT22;1368;49.484;11.112;2022-10-31T13:07:03;23.80;99.90
2721;DHT22;1368;49.484;11.112;2022-10-31T13:12:21;23.70;99.90
2721;DHT22;1368;49.484;11.112;2022-10-31T13:14:58;23.50;99.90
2721;DHT22;1368;49.484;11.112;2022-10-31T13:17:38;23.40;99.90
2721;DHT22;1368;49.484;11.112;2022-10-31T13:20:33;23.10;99.90
2721;DHT22;1368;49.484;11.112;2022-10-31T13:23:24;23.00;99.90
2721;DHT22;1368;49.484;11.112;2022-10-31T13:25:54;22.80;99.90
2721;DHT22;1368;49.484;11.112;2022-10-31T13:28:36;22.70;99.90
2721;DHT22;1368;49.484;11.112;2022-10-31T13:31:04;22.60;99.90
2721;DHT22;1368;49.484;11.112;2022-10-31T13:33:35;22.50;99.90
2721;DHT22;1368;49.484;11.112;2022-10-31T13:36:31;22.60;99.90
2721;DHT22;1368;49.484;11.112;2022-10-31T13:44:22;22.50;99.90
2721;DHT22;1368;49.484;11.112;2022-10-31T13:46:50;22.60;99.90
2721;DHT22;1368;49.484;11.112;2022-10-31T13:52:23;22.80;99.90
2721;DHT22;1368;49.484;11.112;2022-10-31T13:54:51;22.90;99.90
2721;DHT22;1368;49.484;11.112;2022-10-31T13:57:41;22.80;99.90
2721;DHT22;1368;49.484;11.112;2022-10-31T14:00:24;23.20;99.90
2721;DHT22;1368;49.484;11.112;2022-10-31T14:02:52;22.90;99.90
2721;DHT22;1368;49.484;11.112;2022-10-31T14:05:35;22.90;99.90
2721;DHT22;1368;49.484;11.112;2022-10-31T14:08:03;23.00;99.90
2721;DHT22;1368;49.484;11.112;2022-10-31T14:10:38;23.00;99.90
2721;DHT22;1368;49.484;11.112;2022-10-31T14:13:32;22.90;99.90
2721;DHT22;1368;49.484;11.112;2022-10-31T14:16:05;22.90;99.90
2721;DHT22;1368;49.484;11.112;2022-10-31T14:18:32;22.80;99.90
2721;DHT22;1368;49.484;11.112;2022-10-31T14:20:58;22.80;99.90
2721;DHT22;1368;49.484;11.112;2022-10-31T14:28:47;22.80;99.90
2721;DHT22;1368;49.484;11.112;2022-10-31T14:31:39;22.70;99.90
2721;DHT22;1368;49.484;11.112;2022-10-31T14:36:49;22.50;99.90
2721;DHT22;1368;49.484;11.112;2022-10-31T14:47:32;21.90;99.90
2721;DHT22;1368;49.484;11.112;2022-10-31T14:52:51;21.60;99.90
2721;DHT22;1368;49.484;11.112;2022-10-31T14:55:18;21.50;99.90
2721;DHT22;1368;49.484;11.112;2022-10-31T14:57:50;22.00;99.90
2721;DHT22;1368;49.484;11.112;2022-10-31T15:00:18;21.40;99.90
2721;DHT22;1368;49.484;11.112;2022-10-31T15:05:30;21.30;99.90
2721;DHT22;1368;49.484;11.112;2022-10-31T15:07:58;21.30;99.90
2721;DHT22;1368;49.484;11.112;2022-10-31T15:10:29;21.20;99.90
2721;DHT22;1368;49.484;11.112;2022-10-31T15:13:18;21.20;99.90
2721;DHT22;1368;49.484;11.112;2022-10-31T15:15:44;21.10;99.90
2721;DHT22;1368;49.484;11.112;2022-10-31T15:18:33;20.90;99.90
2721;DHT22;1368;49.484;11.112;2022-10-31T15:20:58;20.90;99.90
2721;DHT22;1368;49.484;11.112;2022-10-31T15:23:27;20.80;99.90
2721;DHT22;1368;49.484;11.112;2022-10-31T15:26:03;20.80;99.90
2721;DHT22;1368;49.484;11.112;2022-10-31T15:28:30;20.60;99.90
2721;DHT22;1368;49.484;11.112;2022-10-31T15:30:58;20.90;99.90
2721;DHT22;1368;49.484;11.112;2022-10-31T15:33:29;20.50;99.90
2721;DHT22;1368;49.484;11.112;2022-10-31T15:36:04;20.30;99.90
2721;DHT22;1368;49.484;11.112;2022-10-31T15:38:29;20.20;99.90
2721;DHT22;1368;49.484;11.112;2022-10-31T15:41:01;20.10;99.90
2721;DHT22;1368;49.484;11.112;2022-10-31T15:43:35;20.10;99.90
2721;DHT22;1368;49.484;11.112;2022-10-31T15:46:02;20.10;99.90
2721;DHT22;1368;49.484;11.112;2022-10-31T15:48:28;20.10;99.90
2721;DHT22;1368;49.484;11.112;2022-10-31T15:50:57;20.00;99.90
2721;DHT22;1368;49.484;11.112;2022-10-31T15:53:35;19.90;99.90
2721;DHT22;1368;49.484;11.112;2022-10-31T15:56:05;19.80;99.90
2721;DHT22;1368;49.484;11.112;2022-10-31T15:58:33;19.80;99.90
2721;DHT22;1368;49.484;11.112;2022-10-31T16:01:06;19.60;99.90
2721;DHT22;1368;49.484;11.112;2022-10-31T16:03:43;20.20;99.90
2721;DHT22;1368;49.484;11.112;2022-10-31T16:06:20;19.50;99.90
2721;DHT22;1368;49.484;11.112;2022-10-31T16:08:48;19.40;99.90
2721;DHT22;1368;49.484;11.112;2022-10-31T16:14:05;19.30;99.90
2721;DHT22;1368;49.484;11.112;2022-10-31T16:16:33;19.20;99.90
2721;DHT22;1368;49.484;11.112;2022-10-31T16:19:01;19.20;99.90
2721;DHT22;1368;49.484;11.112;2022-10-31T16:21:33;19.20;99.90
2721;DHT22;1368;49.484;11.112;2022-10-31T16:24:11;19.20;99.90
2721;DHT22;1368;49.484;11.112;2022-10-31T16:26:39;19.00;99.90
2721;DHT22;1368;49.484;11.112;2022-10-31T16:29:41;19.00;99.90
2721;DHT22;1368;49.484;11.112;2022-10-31T16:37:39;18.70;99.90
2721;DHT22;1368;49.484;11.112;2022-10-31T16:40:05;18.70;99.90
2721;DHT22;1368;49.484;11.112;2022-10-31T16:42:32;18.50;99.90
2721;DHT22;1368;49.484;11.112;2022-10-31T16:44:58;18.30;99.90
2721;DHT22;1368;49.484;11.112;2022-10-31T16:47:24;18.30;99.90
2721;DHT22;1368;49.484;11.112;2022-10-31T16:49:50;18.30;99.90
2721;DHT22;1368;49.484;11.112;2022-10-31T16:52:17;18.20;99.90
2721;DHT22;1368;49.484;11.112;2022-10-31T16:54:43;18.00;99.90
2721;DHT22;1368;49.484;11.112;2022-10-31T16:57:15;17.80;99.90
2721;DHT22;1368;49.484;11.112;2022-10-31T16:59:42;17.70;99.90
2721;DHT22;1368;49.484;11.112;2022-10-31T17:02:13;17.50;99.90
2721;DHT22;1368;49.484;11.112;2022-10-31T17:04:39;17.60;99.90
2721;DHT22;1368;49.484;11.112;2022-10-31T17:07:04;17.40;99.90
2721;DHT22;1368;49.484;11.112;2022-10-31T17:09:30;17.40;99.90
2721;DHT22;1368;49.484;11.112;2022-10-31T17:11:56;17.40;99.90
2721;DHT22;1368;49.484;11.112;2022-10-31T17:14:21;17.30;99.90
2721;DHT22;1368;49.484;11.112;2022-10-31T17:16:47;17.30;99.90
2721;DHT22;1368;49.484;11.112;2022-10-31T17:19:13;17.20;99.90
2721;DHT22;1368;49.484;11.112;2022-10-31T17:21:39;17.10;99.90
2721;DHT22;1368;49.484;11.112;2022-10-31T17:24:05;17.10;99.90
2721;DHT22;1368;49.484;11.112;2022-10-31T17:26:31;17.00;99.90
2721;DHT22;1368;49.484;11.112;2022-10-31T17:28:57;16.90;99.90
2721;DHT22;1368;49.484;11.112;2022-10-31T17:31:28;16.80;99.90
2721;DHT22;1368;49.484;11.112;2022-10-31T17:33:55;16.60;99.90
2721;DHT22;1368;49.484;11.112;2022-10-31T17:36:21;17.20;99.90
2721;DHT22;1368;49.484;11.112;2022-10-31T17:38:47;16.80;99.90
2721;DHT22;1368;49.484;11.112;2022-10-31T17:41:13;16.90;99.90
2721;DHT22;1368;49.484;11.112;2022-10-31T17:43:38;17.00;99.90
2721;DHT22;1368;49.484;11.112;2022-10-31T17:46:04;16.70;99.90
2721;DHT22;1368;49.484;11.112;2022-10-31T17:48:32;16.30;99.90
2721;DHT22;1368;49.484;11.112;2022-10-31T17:51:00;16.30;99.90
2721;DHT22;1368;49.484;11.112;2022-10-31T17:53:28;16.30;99.90
2721;DHT22;1368;49.484;11.112;2022-10-31T17:58:27;16.20;99.90
2721;DHT22;1368;49.484;11.112;2022-10-31T18:00:52;16.10;99.90
2721;DHT22;1368;49.484;11.112;2022-10-31T18:03:18;16.10;99.90
2721;DHT22;1368;49.484;11.112;2022-10-31T18:05:54;16.60;99.90
2721;DHT22;1368;49.484;11.112;2022-10-31T18:08:24;16.00;99.90
2721;DHT22;1368;49.484;11.112;2022-10-31T18:10:50;15.90;99.90
2721;DHT22;1368;49.484;11.112;2022-10-31T18:13:16;15.70;99.90
2721;DHT22;1368;49.484;11.112;2022-10-31T18:15:41;15.60;99.90
2721;DHT22;1368;49.484;11.112;2022-10-31T18:18:07;15.60;99.90
2721;DHT22;1368;49.484;11.112;2022-10-31T18:20:32;15.60;99.90
2721;DHT22;1368;49.484;11.112;2022-10-31T18:22:58;15.60;99.90